Time;durP1;ratioP1;P1;durP2;ratioP2;P2;SDS_P1;SDS_P2;PMS_P1;PMS_P2;Temp;Humidity;BMP_temperature;BMP_pressure;BME280_temperature;BME280_humidity;BME280_pressure;Samples;Min_cycle;Max_cycle;Signal;HPM_P1;HPM_P2
2023/08/29 00:00:43;;;;;;;15.30;6.55;;;;;;;13.19;67.45;99356.13;4952266;29;20043;-95
2023/08/29 00:03:09;;;;;;;12.80;6.05;;;;;;;12.99;67.14;99337.66;4934285;29;20062;-92
2023/08/29 00:05:35;;;;;;;11.10;5.65;;;;;;;12.80;67.37;99305.91;4936340;29;20044;-95
2023/08/29 00:08:01;;;;;;;19.10;6.20;;;;;;;12.92;67.70;99324.44;4934819;29;20496;-93
2023/08/29 00:10:28;;;;;;;15.00;5.55;;;;;;;13.07;67.19;99359.56;4934774;29;20529;-94
2023/08/29 00:12:54;;;;;;;16.73;5.60;;;;;;;12.71;67.00;99299.66;4920804;29;20055;-95
2023/08/29 00:15:21;;;;;;;15.77;6.10;;;;;;;13.21;66.81;99375.00;4937208;29;20043;-94
2023/08/29 00:17:47;;;;;;;12.73;5.63;;;;;;;12.61;66.87;99281.59;4935075;29;20520;-93
2023/08/29 00:20:13;;;;;;;10.25;5.28;;;;;;;12.97;66.75;99343.47;4950745;29;20069;-94
2023/08/29 00:22:40;;;;;;;9.47;5.00;;;;;;;12.99;66.20;99351.38;4921104;29;20058;-92
2023/08/29 00:25:07;;;;;;;9.67;5.07;;;;;;;12.93;66.81;99356.22;4933605;29;20031;-94
2023/08/29 00:27:33;;;;;;;13.20;5.28;;;;;;;13.00;66.65;99380.41;4950512;29;20039;-93
2023/08/29 00:29:59;;;;;;;8.15;5.03;;;;;;;12.63;66.23;99315.00;4936210;29;20040;-95
2023/08/29 00:32:26;;;;;;;9.63;4.90;;;;;;;13.12;66.50;99386.84;4951768;29;20047;-95
2023/08/29 00:34:52;;;;;;;12.63;4.93;;;;;;;13.10;66.50;99383.59;4937178;29;20066;-93
2023/08/29 00:37:18;;;;;;;7.60;4.50;;;;;;;13.20;66.11;99387.94;4957521;29;20054;-92
2023/08/29 00:39:44;;;;;;;9.10;5.00;;;;;;;13.17;66.35;99377.63;4963014;28;20024;-94
2023/08/29 00:42:11;;;;;;;19.02;5.43;;;;;;;12.98;65.86;99339.59;4946608;29;20047;-93
2023/08/29 00:44:38;;;;;;;12.70;5.05;;;;;;;13.20;66.75;99367.91;4947346;28;20094;-93
2023/08/29 00:47:04;;;;;;;12.15;5.20;;;;;;;13.10;66.74;99341.63;4932122;29;20024;-93
2023/08/29 00:49:31;;;;;;;8.65;4.60;;;;;;;13.32;66.57;99382.59;4941691;29;20051;-93
2023/08/29 00:51:59;;;;;;;11.52;4.88;;;;;;;13.01;66.23;99325.19;4936237;29;20040;-95
2023/08/29 00:54:26;;;;;;;9.45;4.55;;;;;;;13.07;66.19;99340.34;4953398;29;20065;-93
2023/08/29 00:56:54;;;;;;;11.10;4.83;;;;;;;13.39;66.36;99374.66;4936830;29;20050;-94
2023/08/29 00:59:23;;;;;;;10.43;5.10;;;;;;;13.28;66.30;99365.19;4937126;29;20299;-94
2023/08/29 01:01:50;;;;;;;11.32;5.30;;;;;;;13.02;66.66;99317.78;4936831;29;20149;-95
2023/08/29 01:04:16;;;;;;;8.25;4.75;;;;;;;13.33;66.64;99353.19;4936511;29;20118;-94
2023/08/29 01:06:42;;;;;;;12.77;4.45;;;;;;;13.04;66.47;99321.78;4919343;29;20047;-95
2023/08/29 01:09:08;;;;;;;11.85;4.45;;;;;;;13.05;66.69;99301.47;4934676;29;20094;-93
2023/08/29 01:12:09;;;;;;;18.48;5.32;;;;;;;13.25;66.58;99330.16;4935467;29;20591;-96
2023/08/29 01:14:42;;;;;;;12.98;4.82;;;;;;;13.08;66.42;99303.56;4945933;29;20050;-94
2023/08/29 01:17:28;;;;;;;10.57;5.07;;;;;;;12.83;66.08;99266.84;4918383;29;20054;-95
2023/08/29 01:19:55;;;;;;;9.45;4.82;;;;;;;12.85;66.30;99270.09;4920929;29;20044;-95
2023/08/29 01:22:46;;;;;;;11.13;5.15;;;;;;;13.45;66.25;99372.53;4936495;29;20039;-95
2023/08/29 01:25:36;;;;;;;15.23;4.85;;;;;;;13.28;66.74;99356.94;4931606;29;20054;-92
2023/08/29 01:28:03;;;;;;;17.05;5.13;;;;;;;13.15;66.55;99335.97;4937371;29;20074;-94
2023/08/29 01:30:32;;;;;;;9.45;5.38;;;;;;;13.40;66.74;99379.00;4953551;29;20043;-92
2023/08/29 01:32:59;;;;;;;9.23;5.53;;;;;;;13.49;66.55;99395.44;4942612;28;20050;-95
2023/08/29 01:35:26;;;;;;;9.93;4.40;;;;;;;13.49;66.36;99389.94;4926263;29;20039;-96
2023/08/29 01:37:54;;;;;;;13.55;4.93;;;;;;;13.19;66.70;99350.66;4922507;29;20059;-92
2023/08/29 01:40:20;;;;;;;15.18;5.28;;;;;;;13.41;66.41;99396.31;4951255;29;20039;-94
2023/08/29 01:42:46;;;;;;;15.32;5.82;;;;;;;13.07;66.67;99336.81;4936205;29;20076;-96
2023/08/29 01:45:12;;;;;;;9.90;4.82;;;;;;;13.14;66.60;99342.59;4934602;29;20042;-96
2023/08/29 01:47:39;;;;;;;14.13;5.38;;;;;;;13.18;66.89;99362.78;4951346;29;20079;-96
2023/08/29 01:50:06;;;;;;;10.45;5.47;;;;;;;13.27;67.10;99357.25;4935204;29;20039;-96
2023/08/29 01:52:33;;;;;;;12.57;4.93;;;;;;;13.36;66.46;99388.22;4951728;29;20053;-95
2023/08/29 01:55:01;;;;;;;11.48;4.93;;;;;;;13.25;66.61;99365.03;4934709;29;20035;-96
2023/08/29 01:57:33;;;;;;;11.80;5.43;;;;;;;13.23;66.93;99364.53;4906579;29;20505;-93
2023/08/29 02:00:00;;;;;;;11.80;5.32;;;;;;;13.44;66.82;99381.88;4939717;29;20035;-91
2023/08/29 02:02:26;;;;;;;14.52;5.45;;;;;;;13.40;66.39;99375.44;4943948;29;20055;-92
2023/08/29 02:04:52;;;;;;;8.93;4.97;;;;;;;13.06;66.78;99335.22;4937565;29;20111;-94
2023/08/29 02:07:19;;;;;;;10.38;4.75;;;;;;;13.09;67.08;99345.53;4950704;29;20050;-94
2023/08/29 02:09:45;;;;;;;14.50;5.73;;;;;;;13.43;66.71;99385.78;4934254;29;20039;-95
2023/08/29 02:12:11;;;;;;;11.60;5.22;;;;;;;13.28;66.67;99369.88;4949789;29;20082;-94
2023/08/29 02:14:37;;;;;;;20.08;6.15;;;;;;;13.11;66.74;99335.84;4949393;29;20039;-94
2023/08/29 02:17:04;;;;;;;11.63;6.13;;;;;;;13.50;66.55;99394.28;4933007;29;20043;-94
2023/08/29 02:19:30;;;;;;;9.77;5.57;;;;;;;13.43;66.69;99379.47;4918479;29;20047;-93
2023/08/29 02:21:57;;;;;;;11.50;5.90;;;;;;;13.09;66.17;99321.63;4948298;29;20053;-94
2023/08/29 02:24:23;;;;;;;13.77;5.80;;;;;;;13.22;66.66;99344.50;4950301;29;20050;-94
2023/08/29 02:26:50;;;;;;;15.82;6.75;;;;;;;13.11;67.54;99338.59;4961175;28;20039;-93
2023/08/29 02:29:17;;;;;;;12.88;5.88;;;;;;;13.05;66.99;99317.13;4946058;29;20071;-93
2023/08/29 02:31:43;;;;;;;16.38;6.68;;;;;;;13.49;66.66;99398.19;4962985;28;20043;-92
2023/08/29 02:34:09;;;;;;;15.93;6.83;;;;;;;13.27;66.79;99363.56;4934133;28;20050;-95
2023/08/29 02:36:37;;;;;;;23.65;7.60;;;;;;;13.31;67.15;99355.47;4948733;28;20031;-94
2023/08/29 02:39:03;;;;;;;24.15;7.07;;;;;;;13.27;66.71;99352.56;4950338;29;20030;-93
2023/08/29 02:41:31;;;;;;;24.00;8.00;;;;;;;13.15;66.90;99336.78;4943812;29;20074;-95
2023/08/29 02:43:57;;;;;;;15.93;6.55;;;;;;;13.16;67.07;99345.81;4957788;29;20058;-93
2023/08/29 02:46:23;;;;;;;25.23;7.93;;;;;;;13.29;67.21;99374.22;4958581;29;20123;-94
2023/08/29 02:48:49;;;;;;;25.87;7.57;;;;;;;13.46;67.15;99393.34;4940095;29;20452;-91
2023/08/29 02:51:15;;;;;;;25.25;6.90;;;;;;;13.43;67.36;99393.22;4956839;29;20047;-95
2023/08/29 02:53:42;;;;;;;20.55;7.38;;;;;;;13.25;67.25;99360.34;4938671;29;20090;-95
2023/08/29 02:56:08;;;;;;;19.53;6.23;;;;;;;13.15;67.44;99341.47;4937365;29;20071;-95
2023/08/29 02:58:35;;;;;;;18.42;6.45;;;;;;;13.30;66.73;99362.91;4953365;29;20103;-93
2023/08/29 03:01:02;;;;;;;14.63;5.85;;;;;;;13.56;67.23;99394.94;4923338;29;20058;-95
2023/08/29 03:03:28;;;;;;;17.48;6.55;;;;;;;13.30;66.74;99351.91;4958094;29;20047;-93
2023/08/29 03:05:59;;;;;;;20.10;5.95;;;;;;;13.09;67.42;99307.91;4962454;29;20051;-93
2023/08/29 03:08:29;;;;;;;13.20;6.00;;;;;;;13.54;66.58;99373.31;4979594;29;20027;-93
2023/08/29 03:10:55;;;;;;;13.75;5.18;;;;;;;13.52;66.91;99361.81;4963962;28;20091;-93
2023/08/29 03:13:25;;;;;;;16.38;6.18;;;;;;;13.36;67.21;99345.09;4974891;29;20046;-93
2023/08/29 03:15:52;;;;;;;14.18;5.35;;;;;;;13.52;66.42;99347.31;4940582;29;20136;-93
2023/08/29 03:18:18;;;;;;;16.67;5.33;;;;;;;13.70;66.88;99359.78;4925186;29;20047;-95
2023/08/29 03:20:48;;;;;;;11.95;5.28;;;;;;;13.58;66.37;99337.75;4956944;29;20066;-96
2023/08/29 03:23:14;;;;;;;;;;;;;;;14.03;66.59;99392.06;4923523;29;20051;-93
2023/08/29 03:25:40;;;;;;;14.13;5.33;;;;;;;13.96;66.04;99376.09;4954161;29;19929;-94
2023/08/29 03:28:06;;;;;;;25.63;5.90;;;;;;;13.81;65.91;99347.28;4954381;29;20130;-94
2023/08/29 03:30:32;;;;;;;17.27;5.40;;;;;;;14.15;65.99;99394.88;4939074;29;20039;-95
2023/08/29 03:33:03;;;;;;;16.23;5.63;;;;;;;13.81;65.89;99339.03;4923220;29;20071;-95
2023/08/29 03:35:30;;;;;;;11.20;4.50;;;;;;;13.99;65.27;99366.38;4961003;28;20042;-94
2023/08/29 03:37:59;;;;;;;20.25;5.78;;;;;;;14.09;66.22;99372.28;4990433;28;20038;-95
2023/08/29 03:40:25;;;;;;;20.95;5.60;;;;;;;14.34;65.94;99389.72;4975663;28;20038;-95
2023/08/29 03:42:56;;;;;;;15.70;5.78;;;;;;;14.41;66.08;99391.13;4976582;28;20507;-96
2023/08/29 03:45:22;;;;;;;25.70;5.35;;;;;;;13.88;64.60;99315.72;4979566;28;20046;-95
2023/08/29 03:47:51;;;;;;;20.05;5.10;;;;;;;14.13;65.15;99339.44;4977145;28;20047;-95
2023/08/29 03:50:21;;;;;;;12.23;5.37;;;;;;;13.92;65.13;99298.22;4961733;28;20043;-93
2023/08/29 03:52:48;;;;;;;16.27;6.25;;;;;;;14.20;65.69;99331.44;4962248;28;20046;-96
2023/08/29 03:55:16;;;;;;;17.23;5.68;;;;;;;14.04;65.51;99305.72;4963400;28;20043;-94
2023/08/29 03:57:44;;;;;;;20.13;5.95;;;;;;;14.08;65.56;99309.41;4978914;28;20034;-95
2023/08/29 04:00:15;;;;;;;16.00;5.78;;;;;;;14.15;65.58;99326.16;4929929;28;20097;-95
2023/08/29 04:02:42;;;;;;;13.05;5.65;;;;;;;14.08;65.98;99298.41;4963839;28;20038;-93
2023/08/29 04:05:17;;;;;;;18.85;5.90;;;;;;;14.71;64.88;99387.16;4961047;28;20066;-93
2023/08/29 04:07:47;;;;;;;14.43;5.30;;;;;;;14.76;64.33;99381.44;4978258;28;20069;-93
2023/08/29 04:10:18;;;;;;;21.52;5.65;;;;;;;14.32;64.35;99305.97;4979387;28;20054;-94
2023/08/29 04:12:49;;;;;;;15.20;5.07;;;;;;;14.46;65.09;99314.69;4964416;28;20078;-92
2023/08/29 04:15:19;;;;;;;28.73;6.18;;;;;;;14.82;64.67;99360.00;4976209;28;20030;-92
2023/08/29 04:17:45;;;;;;;27.98;6.30;;;;;;;14.63;64.27;99330.25;4962311;28;20050;-91
2023/08/29 04:20:12;;;;;;;;;;;;;;;15.05;63.90;99382.44;4962296;28;20047;-91
2023/08/29 04:22:39;;;;;;;16.30;6.22;;;;;;;14.96;64.05;99352.25;4964694;28;19963;-94
2023/08/29 04:25:06;;;;;;;16.00;5.47;;;;;;;15.20;63.20;99381.00;4979326;28;20014;-92
2023/08/29 04:27:38;;;;;;;20.25;5.63;;;;;;;14.97;63.39;99331.03;4948644;28;20043;-92
2023/08/29 04:30:31;;;;;;;13.57;4.88;;;;;;;15.07;62.53;99313.28;4967041;28;20051;-92
2023/08/29 04:33:19;;;;;;;12.98;5.18;;;;;;;15.18;61.85;99323.47;4970040;28;20014;-95
2023/08/29 04:35:52;;;;;;;13.60;4.68;;;;;;;15.37;62.46;99325.69;4981140;28;20051;-93
2023/08/29 05:35:41;;;;;;;18.65;4.70;;;;;;;16.85;56.08;99331.59;5013137;28;20058;-95
2023/08/29 05:38:53;;;;;;;17.85;4.85;;;;;;;17.17;55.76;99376.59;4985687;28;20043;-92
2023/08/29 05:41:21;;;;;;;;;;;;;;;17.45;56.97;99398.66;4947157;28;20054;-93
2023/08/29 05:43:51;;;;;;;23.35;4.95;;;;;;;17.33;56.84;99371.88;4959628;28;19906;-93
2023/08/29 05:46:22;;;;;;;24.90;5.32;;;;;;;17.30;56.93;99358.00;4995435;28;20035;-92
2023/08/29 05:48:50;;;;;;;14.10;4.45;;;;;;;17.33;56.32;99371.09;4950005;28;20042;-91
2023/08/29 05:51:19;;;;;;;19.88;5.28;;;;;;;17.34;57.13;99369.94;4995163;28;20046;-93
2023/08/29 05:53:47;;;;;;;10.48;4.70;;;;;;;17.34;57.19;99364.41;4959138;28;20066;-93
2023/08/29 05:56:37;;;;;;;23.17;5.00;;;;;;;17.23;57.26;99338.47;4963621;28;20050;-92
2023/08/29 05:59:04;;;;;;;25.70;6.22;;;;;;;17.48;56.44;99384.13;4948872;28;20034;-92
2023/08/29 06:01:35;;;;;;;;;;;;;;;17.45;55.92;99375.72;4960601;28;20042;-93
2023/08/29 06:04:04;;;;;;;15.82;5.00;;;;;;;17.28;57.52;99347.28;4989934;28;20067;-94
2023/08/29 06:06:33;;;;;;;9.23;5.05;;;;;;;17.32;56.58;99353.72;4964923;28;20022;-93
2023/08/29 06:09:20;;;;;;;27.98;5.25;;;;;;;17.51;57.02;99385.34;4983797;28;20030;-94
2023/08/29 06:11:47;;;;;;;12.88;4.70;;;;;;;17.16;56.69;99335.53;5001072;28;20043;-94
2023/08/29 06:14:14;;;;;;;;;;;;;;;17.50;57.72;99390.06;4965873;28;20037;-94
2023/08/29 06:17:00;;;;;;;10.15;4.60;;;;;;;17.14;56.96;99344.16;4968468;28;19965;-94
2023/08/29 06:19:27;;;;;;;19.23;4.55;;;;;;;17.26;56.66;99373.69;4986176;28;20053;-93
2023/08/29 06:24:50;;;;;;;16.40;4.05;;;;;;;17.38;57.43;99401.19;5038849;23;20050;-93
2023/08/29 06:27:18;;;;;;;33.55;6.10;;;;;;;17.16;56.99;99368.69;4990196;28;20022;-93
2023/08/29 06:30:07;;;;;;;28.48;5.07;;;;;;;17.11;57.58;99362.25;5002181;28;20041;-92
2023/08/29 06:33:00;;;;;;;16.35;5.30;;;;;;;17.05;58.78;99349.06;5003512;28;20046;-92
2023/08/29 06:35:27;;;;;;;19.13;4.88;;;;;;;17.41;57.43;99403.25;4969498;28;20094;-91
2023/08/29 06:37:55;;;;;;;19.17;5.13;;;;;;;16.91;58.06;99327.41;5241010;23;20029;-92
2023/08/29 06:40:24;;;;;;;15.30;4.88;;;;;;;17.46;58.09;99416.03;5002927;28;20040;-92
2023/08/29 06:42:49;;;;;;;;;;;;;;;17.41;57.56;99417.06;4979997;28;20101;-91
2023/08/29 06:45:39;;;;;;;25.70;5.18;;;;;;;17.37;57.52;99405.94;4994773;28;19905;-94
2023/08/29 06:48:12;;;;;;;13.45;4.40;;;;;;;17.41;57.57;99408.78;5002114;28;20064;-91
2023/08/29 06:50:39;;;;;;;10.02;5.35;;;;;;;17.43;59.15;99406.47;4942368;28;20088;-93
2023/08/29 06:53:17;;;;;;;25.45;6.32;;;;;;;17.45;57.59;99415.22;5020253;28;20142;-92
2023/08/29 06:55:46;;;;;;;20.85;7.60;;;;;;;17.10;58.56;99360.66;4974684;28;20052;-92
2023/08/29 06:58:14;;;;;;;25.33;7.18;;;;;;;17.04;58.24;99359.31;4988280;28;20046;-92
2023/08/29 07:00:45;;;;;;;16.40;6.78;;;;;;;17.44;57.65;99432.94;4992474;28;20447;-91
2023/08/29 07:03:20;;;;;;;10.47;6.43;;;;;;;17.00;57.95;99360.38;4970042;28;20045;-91
2023/08/29 07:14:31;;;;;;;25.58;6.20;;;;;;;17.44;59.16;99429.38;5036295;28;20515;-93
2023/08/29 07:17:17;;;;;;;14.90;4.97;;;;;;;17.34;59.24;99401.13;4953235;28;20053;-93
2023/08/29 07:20:08;;;;;;;20.52;5.22;;;;;;;17.31;58.49;99376.16;4971735;28;20042;-93
2023/08/29 07:22:43;;;;;;;12.48;4.45;;;;;;;17.40;58.42;99357.44;4980772;28;20137;-93
2023/08/29 07:25:19;;;;;;;15.43;4.85;;;;;;;17.23;57.73;99328.22;4962827;29;20054;-94
2023/08/29 07:28:08;;;;;;;26.67;5.13;;;;;;;17.31;57.98;99343.00;4947746;29;20027;-95
2023/08/29 07:30:48;;;;;;;28.98;5.95;;;;;;;17.42;57.86;99348.78;4945875;28;20059;-94
2023/08/29 07:33:34;;;;;;;8.73;4.53;;;;;;;17.45;58.53;99343.38;5321565;23;20046;-95
2023/08/29 07:36:09;;;;;;;50.03;6.32;;;;;;;17.61;58.18;99357.16;5026780;23;20065;-94
2023/08/29 07:41:38;;;;;;;12.10;4.75;;;;;;;18.04;57.93;99422.56;5045556;23;20078;-96
2023/08/29 07:44:09;;;;;;;12.23;5.15;;;;;;;17.71;58.17;99355.78;4942835;29;20150;-94
2023/08/29 07:47:07;;;;;;;16.08;5.45;;;;;;;17.82;57.94;99365.19;5208526;23;20804;-93
2023/08/29 07:49:39;;;;;;;18.60;5.13;;;;;;;17.94;57.14;99392.72;4981414;28;20046;-95
2023/08/29 07:52:06;;;;;;;31.60;5.78;;;;;;;18.01;57.81;99392.06;4948196;28;20019;-94
2023/08/29 07:54:36;;;;;;;10.05;4.82;;;;;;;17.91;57.43;99370.50;4982001;28;20018;-96
2023/08/29 07:57:18;;;;;;;11.50;4.60;;;;;;;18.30;57.83;99415.63;4966580;28;20057;-93
2023/08/29 08:00:32;;;;;;;17.48;4.80;;;;;;;17.91;56.76;99348.38;4960931;28;20035;-95
2023/08/29 08:06:30;;;;;;;42.38;6.35;;;;;;;17.94;57.41;99342.13;4900723;29;20057;-94
2023/08/29 08:09:36;;;;;;;25.63;5.45;;;;;;;18.41;57.32;99426.94;4888736;29;20045;-93
2023/08/29 08:12:04;;;;;;;14.75;5.57;;;;;;;18.20;56.74;99399.59;4888741;29;20104;-93
2023/08/29 08:15:00;;;;;;;11.45;5.07;;;;;;;18.17;58.04;99376.22;4881219;29;20048;-92
2023/08/29 08:17:31;;;;;;;15.20;4.85;;;;;;;17.93;57.15;99343.28;4875168;29;20041;-93
2023/08/29 08:19:58;;;;;;;33.13;5.90;;;;;;;18.05;56.79;99357.00;4870506;29;20045;-96
2023/08/29 08:22:28;;;;;;;16.02;4.90;;;;;;;18.07;55.91;99363.75;4883231;29;20112;-94
2023/08/29 08:24:54;;;;;;;17.65;5.13;;;;;;;18.47;56.51;99414.41;4863905;29;20068;-92
2023/08/29 08:27:22;;;;;;;18.30;6.30;;;;;;;18.48;57.16;99408.53;4866723;29;20033;-95
2023/08/29 08:29:50;;;;;;;54.55;6.25;;;;;;;18.26;57.23;99356.66;4866398;29;20101;-96
2023/08/29 08:32:19;;;;;;;30.38;6.88;;;;;;;18.36;56.40;99369.91;4836865;29;20049;-93
2023/08/29 08:34:48;;;;;;;82.95;8.82;;;;;;;18.21;55.99;99345.84;4859541;29;20064;-93
2023/08/29 08:37:20;;;;;;;33.35;7.10;;;;;;;18.58;56.57;99411.88;4858357;29;20030;-93
2023/08/29 08:39:49;;;;;;;28.08;6.22;;;;;;;18.49;55.19;99392.72;4885049;29;20048;-93
2023/08/29 08:42:18;;;;;;;18.35;5.80;;;;;;;18.71;56.25;99424.41;4854802;29;20053;-94
2023/08/29 08:44:53;;;;;;;12.07;5.78;;;;;;;18.20;54.53;99361.66;4885115;29;20072;-92
2023/08/29 08:47:29;;;;;;;11.50;5.00;;;;;;;18.53;55.48;99424.84;4871596;29;20029;-93
2023/08/29 08:53:07;;;;;;;9.18;4.85;;;;;;;18.19;55.60;99348.22;5419896;23;20086;-93
2023/08/29 09:23:27;;;;;;;12.32;4.75;;;;;;;18.99;54.79;99386.19;5034414;28;20085;-91
2023/08/29 09:26:06;;;;;;;11.88;5.57;;;;;;;18.68;55.25;99336.53;4990198;28;20022;-92
2023/08/29 09:28:38;;;;;;;31.27;5.75;;;;;;;18.67;54.66;99357.06;4959316;28;20034;-94
2023/08/29 09:31:06;;;;;;;38.05;6.10;;;;;;;18.99;55.29;99413.91;4997241;28;20185;-95
2023/08/29 09:33:54;;;;;;;16.02;5.30;;;;;;;18.82;55.46;99374.81;5015566;28;20022;-94
2023/08/29 09:36:22;;;;;;;25.58;6.13;;;;;;;19.02;55.80;99391.00;5000690;28;20034;-91
2023/08/29 09:38:58;;;;;;;;;;;;;;;19.25;55.39;99420.72;4955575;28;20049;-94
2023/08/29 09:42:05;;;;;;;29.92;6.65;;;;;;;19.20;54.92;99421.84;5153088;23;19932;-92
2023/08/29 09:44:38;;;;;;;27.10;5.68;;;;;;;19.30;55.33;99425.16;4974210;28;20055;-92
2023/08/29 09:47:28;;;;;;;10.90;5.72;;;;;;;19.21;54.76;99397.69;4945208;28;20046;-93
2023/08/29 10:25:08;;;;;;;12.15;5.57;;;;;;;19.74;53.34;99363.72;5584614;23;20036;-91
2023/08/29 10:45:46;;;;;;;;;;;;;;;19.52;54.48;99412.47;5008323;28;20058;-95
2023/08/29 11:00:57;;;;;;;15.77;6.25;;;;;;;19.56;56.64;99429.97;5082712;23;20026;-96
2023/08/29 11:07:10;;;;;;;24.33;6.43;;;;;;;19.28;56.33;99408.09;5134767;23;20042;-95
2023/08/29 11:10:32;;;;;;;12.80;6.55;;;;;;;19.22;56.41;99386.22;4981742;28;20031;-94
2023/08/29 11:16:46;;;;;;;19.45;8.38;;;;;;;19.51;55.66;99444.16;5169665;23;19925;-92
2023/08/29 11:19:23;;;;;;;22.05;7.40;;;;;;;19.45;55.96;99419.50;4989640;28;20050;-91
2023/08/29 11:21:50;;;;;;;23.95;6.85;;;;;;;19.54;55.52;99427.56;4954657;28;20117;-90
2023/08/29 11:24:20;;;;;;;26.77;11.05;;;;;;;19.45;54.96;99411.16;4994724;28;20046;-91
2023/08/29 11:26:47;;;;;;;40.72;12.13;;;;;;;19.56;55.37;99391.13;4997079;28;20038;-91
2023/08/29 11:29:13;;;;;;;21.23;10.63;;;;;;;19.91;55.45;99421.44;4992032;28;20042;-92
2023/08/29 11:32:00;;;;;;;37.47;10.80;;;;;;;19.61;54.56;99371.44;4963866;28;20045;-92
2023/08/29 11:34:26;;;;;;;25.58;8.10;;;;;;;19.81;54.63;99405.44;4981668;28;20057;-95
2023/08/29 11:36:53;;;;;;;28.08;9.85;;;;;;;19.67;54.84;99372.75;4977035;28;20058;-93
2023/08/29 11:39:22;;;;;;;30.52;13.77;;;;;;;19.81;54.71;99386.81;4959564;28;20056;-92
2023/08/29 11:41:49;;;;;;;15.57;9.40;;;;;;;19.92;55.35;99381.41;4960165;28;20050;-95
2023/08/29 11:44:18;;;;;;;22.90;7.70;;;;;;;19.91;55.15;99377.06;4990366;28;20050;-92
2023/08/29 11:46:44;;;;;;;39.08;8.15;;;;;;;20.23;55.73;99419.16;4956544;28;20046;-92
2023/08/29 11:49:15;;;;;;;29.88;6.90;;;;;;;20.25;54.96;99410.44;4955516;28;20038;-91
2023/08/29 11:51:45;;;;;;;52.03;12.75;;;;;;;20.30;54.46;99430.34;4954260;28;20074;-91
2023/08/29 11:54:56;;;;;;;24.55;11.18;;;;;;;20.31;53.83;99426.38;4974950;28;20050;-91
2023/08/29 11:57:44;;;;;;;57.35;24.73;;;;;;;19.90;53.72;99401.22;4992493;28;20022;-91
2023/08/29 12:00:49;;;;;;;32.38;13.20;;;;;;;20.19;54.24;99421.06;4985504;28;20033;-93
2023/08/29 12:03:31;;;;;;;19.75;7.80;;;;;;;19.86;54.67;99399.56;4999426;28;20046;-94
2023/08/29 12:06:28;;;;;;;20.55;6.50;;;;;;;19.80;53.93;99382.44;4973464;28;20054;-94
2023/08/29 12:09:05;;;;;;;15.88;6.07;;;;;;;19.60;54.29;99354.00;4959411;28;20053;-95
2023/08/29 12:12:49;;;;;;;19.23;6.38;;;;;;;19.51;55.30;99339.56;4992069;28;20053;-96
2023/08/29 12:16:14;;;;;;;19.55;6.15;;;;;;;19.52;55.82;99351.47;5418646;23;20050;-95
2023/08/29 12:18:55;;;;;;;77.20;9.25;;;;;;;19.54;56.35;99354.69;4934359;28;20026;-95
2023/08/29 12:22:19;;;;;;;32.25;6.38;;;;;;;19.51;56.39;99338.78;4965336;28;20070;-95
2023/08/29 12:24:54;;;;;;;24.05;7.22;;;;;;;20.00;56.24;99426.72;4930380;28;20037;-94
2023/08/29 12:27:36;;;;;;;17.33;6.82;;;;;;;19.91;56.62;99416.69;4903898;29;20056;-95
2023/08/29 12:30:14;;;;;;;26.55;7.45;;;;;;;19.65;57.23;99377.84;4901529;29;20062;-94
2023/08/29 12:33:22;;;;;;;44.80;7.55;;;;;;;19.73;56.71;99398.97;4889642;29;20057;-94
2023/08/29 12:38:44;;;;;;;30.08;6.55;;;;;;;19.42;56.36;99381.41;5020232;23;20058;-93
2023/08/29 12:41:26;;;;;;;15.07;6.22;;;;;;;19.43;57.18;99385.78;5000389;28;20046;-93
2023/08/29 12:44:08;;;;;;;9.82;6.13;;;;;;;19.37;56.96;99378.97;4985813;28;20598;-95
2023/08/29 12:47:02;;;;;;;23.85;7.07;;;;;;;19.37;57.13;99390.06;4959764;28;20114;-94
2023/08/29 12:49:38;;;;;;;24.25;6.68;;;;;;;19.06;58.56;99340.41;4991553;28;20026;-93
2023/08/29 12:52:13;;;;;;;20.67;6.72;;;;;;;19.15;57.57;99374.22;5000391;28;20038;-94
2023/08/29 12:55:25;;;;;;;19.95;7.00;;;;;;;19.14;58.42;99353.19;4961203;28;20100;-94
2023/08/29 12:57:58;;;;;;;22.60;7.05;;;;;;;19.19;57.43;99356.47;4974772;28;20081;-93
2023/08/29 13:01:00;;;;;;;23.27;7.90;;;;;;;19.07;57.50;99351.09;5000819;28;20049;-93
2023/08/29 13:46:31;;;;;;;22.75;7.70;;;;;;;19.49;59.63;99411.22;4964195;29;20059;-91
2023/08/29 13:48:57;;;;;;;28.92;7.47;;;;;;;19.10;59.26;99353.13;4916036;29;20050;-91
2023/08/29 13:51:23;;;;;;;34.58;7.72;;;;;;;19.20;60.29;99371.13;4928516;29;20039;-90
2023/08/29 13:54:10;;;;;;;49.13;9.05;;;;;;;19.37;59.03;99401.16;4920480;28;20047;-91
2023/08/29 13:56:44;;;;;;;23.85;7.28;;;;;;;19.12;58.87;99363.88;4950772;28;20062;-93
2023/08/29 13:59:12;;;;;;;18.45;7.88;;;;;;;19.16;60.15;99373.84;4938126;29;20059;-92
2023/08/29 14:01:58;;;;;;;18.45;7.03;;;;;;;19.12;60.61;99363.88;4942640;29;20075;-95
2023/08/29 14:04:27;;;;;;;84.25;9.77;;;;;;;19.29;61.54;99396.63;4943497;29;20055;-96
2023/08/29 14:07:03;;;;;;;62.45;8.90;;;;;;;19.35;61.37;99405.44;4945068;29;20051;-96
2023/08/29 14:09:36;;;;;;;38.00;8.77;;;;;;;19.16;61.07;99384.91;4911275;29;20075;-92
2023/08/29 14:12:09;;;;;;;16.63;8.73;;;;;;;19.31;61.13;99397.06;4954624;29;20102;-92
2023/08/29 14:14:36;;;;;;;15.90;8.05;;;;;;;19.29;61.53;99413.25;4929200;29;20047;-92
2023/08/29 14:17:02;;;;;;;24.33;9.95;;;;;;;19.22;61.23;99402.06;4932274;29;20051;-92
2023/08/29 14:19:30;;;;;;;22.53;8.90;;;;;;;19.28;62.51;99408.91;4930836;29;20047;-90
2023/08/29 14:22:18;;;;;;;18.23;8.32;;;;;;;19.24;62.79;99402.50;4908595;29;20140;-93
2023/08/29 14:24:44;;;;;;;23.77;8.48;;;;;;;19.09;63.25;99384.00;4894096;29;20135;-94
2023/08/29 14:27:10;;;;;;;28.02;9.20;;;;;;;18.92;63.35;99349.28;4880707;29;20037;-96
2023/08/29 14:29:44;;;;;;;36.50;8.32;;;;;;;19.16;61.74;99401.56;4902182;29;20052;-94
2023/08/29 14:32:12;;;;;;;39.25;9.07;;;;;;;18.92;62.20;99355.59;4899649;29;20040;-94
2023/08/29 14:34:38;;;;;;;27.90;7.38;;;;;;;19.05;62.73;99380.38;4877630;29;20074;-95
2023/08/29 14:37:04;;;;;;;42.77;8.37;;;;;;;18.98;62.86;99358.88;4877529;29;20061;-91
2023/08/29 14:39:33;;;;;;;;;;;;;;;19.20;63.73;99396.06;4926819;29;20053;-94
2023/08/29 14:41:59;;;;;;;180.73;13.65;;;;;;;19.05;62.69;99372.84;4889501;29;20026;-92
2023/08/29 14:44:32;;;;;;;45.70;7.15;;;;;;;19.16;60.88;99409.88;4881415;29;20112;-94
2023/08/29 14:47:09;;;;;;;32.25;7.72;;;;;;;18.97;61.54;99376.66;4902315;29;20064;-96
2023/08/29 14:49:36;;;;;;;40.88;8.02;;;;;;;18.83;61.56;99366.13;4895913;29;20045;-92
2023/08/29 14:52:03;;;;;;;26.93;8.03;;;;;;;18.83;62.82;99370.84;4880211;29;20151;-91
2023/08/29 14:54:30;;;;;;;23.38;8.07;;;;;;;18.88;62.19;99398.28;4923918;29;20337;-91
2023/08/29 14:56:58;;;;;;;30.48;8.23;;;;;;;18.77;63.14;99376.72;4930349;29;20151;-92
2023/08/29 14:59:26;;;;;;;24.20;8.60;;;;;;;18.99;64.42;99411.13;4884968;29;20064;-91
2023/08/29 15:01:53;;;;;;;22.85;7.75;;;;;;;18.77;64.25;99385.03;4932535;29;20055;-95
2023/08/29 15:04:42;;;;;;;24.48;7.50;;;;;;;18.74;62.79;99407.91;4901755;29;20044;-94
2023/08/29 15:07:14;;;;;;;46.53;8.40;;;;;;;18.68;63.70;99383.59;4936461;29;20452;-93
2023/08/29 15:09:41;;;;;;;60.58;9.35;;;;;;;18.85;64.58;99408.09;4919224;29;20040;-94
2023/08/29 15:12:10;;;;;;;73.73;10.33;;;;;;;18.79;64.25;99387.41;4917579;29;20098;-95
2023/08/29 15:14:39;;;;;;;36.58;8.55;;;;;;;18.66;65.09;99375.66;4922447;29;20119;-93
2023/08/29 15:17:08;;;;;;;38.15;8.30;;;;;;;18.77;64.81;99400.81;4923910;29;20039;-92
2023/08/29 15:19:38;;;;;;;20.63;9.52;;;;;;;18.80;65.36;99404.81;4906045;29;20050;-94
2023/08/29 15:22:05;;;;;;;24.13;9.73;;;;;;;18.93;63.55;99428.44;4920667;29;20043;-95
2023/08/29 15:24:35;;;;;;;21.15;8.77;;;;;;;18.75;63.90;99405.94;4940280;29;20497;-92
2023/08/29 15:27:01;;;;;;;30.70;9.18;;;;;;;18.75;64.06;99405.94;4922548;29;20074;-92
2023/08/29 15:29:29;;;;;;;50.95;10.70;;;;;;;18.66;63.54;99399.78;4917044;29;20035;-91
2023/08/29 15:31:55;;;;;;;28.80;9.48;;;;;;;18.65;63.28;99412.03;4933675;29;20047;-92
2023/08/29 15:34:22;;;;;;;27.10;10.10;;;;;;;18.69;64.47;99408.16;4948607;29;20039;-94
2023/08/29 15:36:51;;;;;;;32.33;9.40;;;;;;;18.40;64.71;99372.75;4918717;29;20051;-93
2023/08/29 15:39:17;;;;;;;38.90;12.48;;;;;;;18.48;65.35;99391.91;4948976;29;20047;-94